createdAt,value
2023-02-01T00:01:45.013Z,3.45
2023-02-01T00:04:47.817Z,3.83
2023-02-01T00:07:50.503Z,3.33
2023-02-01T00:11:03.057Z,5.13
2023-02-01T00:14:06.149Z,2.10
2023-02-01T00:17:08.741Z,3.20
2023-02-01T00:20:11.826Z,3.83
2023-02-01T00:23:14.417Z,3.40
2023-02-01T00:26:26.666Z,2.77
2023-02-01T00:29:29.297Z,3.17
2023-02-01T00:32:32.925Z,3.75
2023-02-01T00:35:36.295Z,3.03
2023-02-01T00:38:39.706Z,3.50
2023-02-01T00:41:42.453Z,2.93
2023-02-01T00:44:45.166Z,4.63
2023-02-01T00:47:47.590Z,3.08
2023-02-01T00:50:50.170Z,2.38
2023-02-01T00:53:54.133Z,4.57
2023-02-01T00:56:56.628Z,3.63
2023-02-01T00:59:59.357Z,2.53
2023-02-01T01:03:01.977Z,2.60
2023-02-01T01:06:13.865Z,3.08
2023-02-01T01:09:16.869Z,2.67
2023-02-01T01:12:20.764Z,4.10
2023-02-01T01:15:23.236Z,2.90
2023-02-01T01:18:25.708Z,3.17
2023-02-01T01:21:28.782Z,3.47
2023-02-01T01:24:31.197Z,2.93
2023-02-01T01:27:33.630Z,3.97
2023-02-01T01:30:36.429Z,4.32
2023-02-01T01:33:39.168Z,3.97
2023-02-01T01:36:42.198Z,4.43
2023-02-01T01:39:44.693Z,2.40
2023-02-01T01:42:47.289Z,3.08
2023-02-01T01:45:51.750Z,3.47
2023-02-01T01:49:02.390Z,3.88
2023-02-01T01:52:06.833Z,3.40
2023-02-01T01:55:09.553Z,5.03
2023-02-01T01:58:17.105Z,2.75
2023-02-01T02:01:20.293Z,3.65
2023-02-01T02:04:23.652Z,3.17
2023-02-01T02:10:56.632Z,1.80
2023-02-01T02:14:00.174Z,2.95
2023-02-01T02:17:08.685Z,3.38
2023-02-01T02:20:36.994Z,2.85
2023-02-01T02:23:59.880Z,2.40
2023-02-01T02:27:27.756Z,4.40
2023-02-01T02:30:40.731Z,2.30
2023-02-01T02:34:27.771Z,2.00
2023-02-01T02:37:52.968Z,2.13
2023-02-01T02:41:07.378Z,3.17
2023-02-01T02:44:35.578Z,1.55
2023-02-01T02:47:49.174Z,4.65
2023-02-01T02:51:20.526Z,2.47
2023-02-01T02:54:47.430Z,2.90
2023-02-01T02:58:10.494Z,2.05
2023-02-01T03:01:31.593Z,1.83
2023-02-01T03:04:35.182Z,1.40
2023-02-01T03:08:02.125Z,1.80
2023-02-01T03:11:05.133Z,1.40
2023-02-01T03:14:07.896Z,3.72
2023-02-01T03:17:20.300Z,2.13
2023-02-01T03:20:25.547Z,3.10
2023-02-01T03:23:34.971Z,1.67
2023-02-01T03:26:42.181Z,2.28
2023-02-01T03:29:57.276Z,2.17
2023-02-01T03:33:03.921Z,2.10
2023-02-01T03:36:36.720Z,1.73
2023-02-01T03:39:49.367Z,1.52
2023-02-01T03:42:56.208Z,2.22
2023-02-01T03:46:03.794Z,1.40
2023-02-01T03:49:09.249Z,1.50
2023-02-01T03:52:21.324Z,1.85
2023-02-01T03:55:26.202Z,2.13
2023-02-01T03:58:29.155Z,2.60
2023-02-01T04:01:32.121Z,1.37
2023-02-01T04:04:35.978Z,1.30
2023-02-01T04:07:38.439Z,1.13
2023-02-01T04:10:41.171Z,1.63
2023-02-01T04:13:44.770Z,2.70
2023-02-01T04:16:47.277Z,1.85
2023-02-01T04:19:49.794Z,1.85
2023-02-01T04:22:52.278Z,1.70
2023-02-01T04:25:55.787Z,2.20
2023-02-01T04:28:58.317Z,1.20
2023-02-01T04:32:00.857Z,2.13
2023-02-01T04:35:04.326Z,1.90
2023-02-01T04:38:08.005Z,2.30
2023-02-01T04:41:10.575Z,1.43
2023-02-01T04:44:18.087Z,2.15
2023-02-01T04:47:20.449Z,1.30
2023-02-01T04:50:24.832Z,0.98
2023-02-01T04:53:27.674Z,2.40
2023-02-01T04:56:30.231Z,1.98
2023-02-01T04:59:32.696Z,2.38
2023-02-01T05:02:36.109Z,2.00
2023-02-01T05:05:38.589Z,1.10
2023-02-01T05:08:41.286Z,1.67
2023-02-01T05:12:02.480Z,2.78
2023-02-01T05:15:05.444Z,1.73
2023-02-01T05:18:07.923Z,1.50
2023-02-01T05:21:10.351Z,1.90
2023-02-01T05:24:20.572Z,1.75
2023-02-01T05:27:23.042Z,2.20
2023-02-01T05:30:25.726Z,1.05
2023-02-01T05:33:28.158Z,1.83
2023-02-01T05:36:30.906Z,2.88
2023-02-01T05:39:33.550Z,1.35
2023-02-01T05:42:36.181Z,1.98
2023-02-01T05:45:38.604Z,2.00
2023-02-01T05:48:42.010Z,1.70
2023-02-01T05:51:44.489Z,1.45
2023-02-01T05:54:48.234Z,1.90
2023-02-01T05:57:51.224Z,1.77
2023-02-01T06:00:53.855Z,1.55
2023-02-01T06:03:56.509Z,1.90
2023-02-01T06:06:59.171Z,1.73
2023-02-01T06:10:01.929Z,1.50
2023-02-01T06:13:04.801Z,2.45
2023-02-01T06:16:08.613Z,3.30
2023-02-01T06:19:11.594Z,1.70
2023-02-01T06:22:14.183Z,3.15
2023-02-01T06:25:18.125Z,1.58
2023-02-01T06:28:20.713Z,1.58
2023-02-01T06:31:24.202Z,2.03
2023-02-01T06:34:26.857Z,1.40
2023-02-01T06:37:30.567Z,1.70
2023-02-01T06:40:33.105Z,2.20
2023-02-01T06:43:35.639Z,1.65
2023-02-01T06:46:38.127Z,1.50
2023-02-01T06:49:41.483Z,1.35
2023-02-01T06:52:44.338Z,2.15
2023-02-01T06:55:58.173Z,2.88
2023-02-01T06:59:01.601Z,2.73
2023-02-01T07:02:04.590Z,2.27
2023-02-01T07:05:07.427Z,1.70
2023-02-01T07:08:10.034Z,2.15
2023-02-01T07:11:14.740Z,1.90
2023-02-01T07:14:17.359Z,2.07
2023-02-01T07:17:22.891Z,2.10
2023-02-01T07:20:25.718Z,1.73
2023-02-01T07:23:28.748Z,1.67
2023-02-01T07:26:31.743Z,2.63
2023-02-01T07:29:34.679Z,2.47
2023-02-01T07:32:38.252Z,1.85
2023-02-01T07:35:41.000Z,2.47
2023-02-01T07:38:43.967Z,1.88
2023-02-01T07:41:47.327Z,2.30
2023-02-01T07:44:49.848Z,3.17
2023-02-01T07:47:54.117Z,2.08
2023-02-01T07:51:01.469Z,1.77
2023-02-01T07:54:04.054Z,2.23
2023-02-01T07:57:06.538Z,2.50
2023-02-01T08:00:28.531Z,1.30
2023-02-01T08:03:31.344Z,1.58
2023-02-01T08:06:35.598Z,2.15
2023-02-01T08:09:38.039Z,2.83
2023-02-01T08:12:42.376Z,2.20
2023-02-01T08:15:44.791Z,1.45
2023-02-01T08:18:47.235Z,2.75
2023-02-01T08:21:50.864Z,3.08
2023-02-01T08:25:02.221Z,4.30
2023-02-01T08:28:07.524Z,2.37
2023-02-01T08:31:15.910Z,1.73
2023-02-01T08:34:18.989Z,1.90
2023-02-01T08:37:21.486Z,2.25
2023-02-01T08:40:24.335Z,2.90
2023-02-01T08:43:27.146Z,3.30
2023-02-01T08:46:29.853Z,1.60
2023-02-01T08:49:32.420Z,1.33
2023-02-01T08:52:37.365Z,1.10
2023-02-01T08:55:40.720Z,2.67
2023-02-01T08:58:43.778Z,2.60
2023-02-01T09:01:46.280Z,1.75
2023-02-01T09:04:48.873Z,1.85
2023-02-01T09:07:51.413Z,2.30
2023-02-01T09:10:54.108Z,2.87
2023-02-01T09:13:56.924Z,1.27
2023-02-01T09:16:59.340Z,2.08
2023-02-01T09:20:02.259Z,2.08
2023-02-01T09:23:04.900Z,2.15
2023-02-01T09:26:07.961Z,1.83
2023-02-01T09:29:13.575Z,4.07
2023-02-01T09:32:16.887Z,3.72
2023-02-01T09:35:20.089Z,3.80
2023-02-01T09:38:23.266Z,1.60
2023-02-01T09:41:31.714Z,1.77
2023-02-01T09:45:02.210Z,2.63
2023-02-01T09:48:15.579Z,1.35
2023-02-01T09:51:24.623Z,1.67
2023-02-01T09:54:41.836Z,1.92
2023-02-01T09:57:55.459Z,1.90
2023-02-01T10:01:00.925Z,3.50
2023-02-01T10:04:08.611Z,2.13
2023-02-01T10:07:22.891Z,4.22
2023-02-01T10:11:00.861Z,2.22
2023-02-01T10:14:28.709Z,2.30
2023-02-01T10:17:46.445Z,2.97
2023-02-01T10:21:10.184Z,2.85
2023-02-01T10:24:23.449Z,2.30
2023-02-01T10:27:35.568Z,5.18
2023-02-01T10:30:44.139Z,3.20
2023-02-01T10:33:57.536Z,1.80
2023-02-01T10:37:20.651Z,2.80
2023-02-01T10:40:26.850Z,3.58
2023-02-01T10:43:29.743Z,2.03
2023-02-01T10:46:34.656Z,4.00
2023-02-01T10:49:50.960Z,1.17
2023-02-01T10:53:05.662Z,1.77
2023-02-01T10:56:11.207Z,2.95
2023-02-01T10:59:24.429Z,1.77
2023-02-01T11:02:35.959Z,2.47
2023-02-01T11:05:46.763Z,2.90
2023-02-01T11:08:52.072Z,1.42
2023-02-01T11:11:57.987Z,1.65
2023-02-01T11:15:25.793Z,2.35
2023-02-01T11:18:31.093Z,1.80
2023-02-01T11:21:35.427Z,1.53
2023-02-01T11:24:40.130Z,3.30
2023-02-01T11:27:53.208Z,2.97
2023-02-01T11:31:00.506Z,3.85
2023-02-01T11:34:17.092Z,2.30
2023-02-01T11:37:21.865Z,2.87
2023-02-01T11:40:35.013Z,1.60
2023-02-01T11:43:37.524Z,2.50
2023-02-01T11:46:39.960Z,3.30
2023-02-01T11:49:42.535Z,4.33
2023-02-01T11:53:00.129Z,3.80
2023-02-01T11:56:09.701Z,3.40
2023-02-01T11:59:38.878Z,4.40
2023-02-01T12:03:05.060Z,4.07
2023-02-01T12:06:20.174Z,6.40
2023-02-01T12:09:55.158Z,3.77
2023-02-01T12:13:43.628Z,4.43
2023-02-01T12:16:49.521Z,4.97
2023-02-01T12:20:07.413Z,5.22
2023-02-01T12:23:37.528Z,4.40
2023-02-01T12:26:53.439Z,5.40
2023-02-01T12:30:17.463Z,4.55
2023-02-01T12:33:44.098Z,4.55
2023-02-01T12:37:07.680Z,6.55
2023-02-01T12:40:29.723Z,5.00
2023-02-01T12:43:44.330Z,4.90
2023-02-01T12:46:59.242Z,4.40
2023-02-01T12:50:35.147Z,2.65
2023-02-01T12:54:18.826Z,3.10
2023-02-01T12:57:39.531Z,4.37
2023-02-01T13:01:05.628Z,5.53
2023-02-01T13:04:15.383Z,4.25
2023-02-01T13:07:31.369Z,4.30
2023-02-01T13:10:43.781Z,5.37
2023-02-01T13:13:55.769Z,4.43
2023-02-01T13:17:15.954Z,8.25
2023-02-01T13:20:25.714Z,3.67
2023-02-01T13:23:32.562Z,5.17
2023-02-01T13:26:35.407Z,4.23
2023-02-01T13:30:01.443Z,4.47
2023-02-01T13:33:52.814Z,3.75
2023-02-01T13:37:09.441Z,7.90
2023-02-01T13:40:46.624Z,3.73
2023-02-01T13:43:54.033Z,4.50
2023-02-01T13:47:01.024Z,4.28
2023-02-01T13:50:18.933Z,1.80
2023-02-01T13:53:30.221Z,2.30
2023-02-01T13:56:42.250Z,1.83
2023-02-01T13:59:44.927Z,2.23
2023-02-01T14:02:50.188Z,2.85
2023-02-01T14:05:52.653Z,2.38
2023-02-01T14:09:18.444Z,2.25
2023-02-01T14:12:45.324Z,1.33
2023-02-01T14:16:06.722Z,0.97
2023-02-01T14:19:30.491Z,0.80
2023-02-01T14:22:35.557Z,2.00
2023-02-01T14:25:38.875Z,0.95
2023-02-01T14:28:45.966Z,1.60
2023-02-01T14:32:06.917Z,2.00
2023-02-01T14:35:27.076Z,1.05
2023-02-01T14:38:33.284Z,1.48
2023-02-01T14:41:36.844Z,5.03
2023-02-01T14:44:39.364Z,2.73
2023-02-01T14:48:07.983Z,6.78
2023-02-01T14:51:14.466Z,4.32
2023-02-01T14:54:17.156Z,3.63
2023-02-01T14:57:21.854Z,5.23
2023-02-01T15:00:30.626Z,4.70
2023-02-01T15:03:52.008Z,5.57
2023-02-01T15:06:58.462Z,7.43
2023-02-01T15:10:01.214Z,8.30
2023-02-01T15:13:03.739Z,14.30
2023-02-01T15:16:13.093Z,7.73
2023-02-01T15:19:15.885Z,9.80
2023-02-01T15:22:20.302Z,3.50
2023-02-01T15:25:28.741Z,7.30
2023-02-01T15:28:31.254Z,9.17
2023-02-01T15:31:40.086Z,13.90
2023-02-01T15:34:50.819Z,12.25
2023-02-01T15:37:53.862Z,11.40
2023-02-01T15:41:19.474Z,10.17
2023-02-01T15:44:34.700Z,9.45
2023-02-01T15:47:37.575Z,11.18
2023-02-01T15:50:41.277Z,11.63
2023-02-01T15:53:55.578Z,10.90
2023-02-01T15:57:01.125Z,12.10
2023-02-01T16:00:19.972Z,11.57
2023-02-01T16:03:38.081Z,11.43
2023-02-01T16:06:51.181Z,7.63
2023-02-01T16:09:56.438Z,9.55
2023-02-01T16:13:01.292Z,8.15
2023-02-01T16:16:05.882Z,5.93
2023-02-01T16:19:08.796Z,5.63
2023-02-01T16:22:11.437Z,1.40
2023-02-01T16:25:13.993Z,1.98
2023-02-01T16:28:16.433Z,3.63
2023-02-01T16:31:29.444Z,2.22
2023-02-01T16:34:32.393Z,1.53
2023-02-01T16:37:35.524Z,2.08
2023-02-01T16:40:38.095Z,3.47
2023-02-01T16:43:41.416Z,2.78
2023-02-01T16:46:47.345Z,4.03
2023-02-01T16:49:50.084Z,3.97
2023-02-01T16:52:54.467Z,2.30
2023-02-01T16:55:58.382Z,2.08
2023-02-01T16:59:01.391Z,1.40
2023-02-01T17:02:04.163Z,2.40
2023-02-01T17:05:07.534Z,3.80
2023-02-01T17:08:13.661Z,3.47
2023-02-01T17:11:16.282Z,3.53
2023-02-01T17:14:21.036Z,1.40
2023-02-01T17:17:37.769Z,2.87
2023-02-01T17:20:42.914Z,3.40
2023-02-01T17:23:46.734Z,4.78
2023-02-01T17:26:51.543Z,3.60
2023-02-01T17:29:55.226Z,2.43
2023-02-01T17:32:58.088Z,2.22
2023-02-01T17:36:01.363Z,1.88
2023-02-01T17:39:06.512Z,6.65
2023-02-01T17:42:12.237Z,2.85
2023-02-01T17:45:32.806Z,1.50
2023-02-01T17:48:35.597Z,3.40
2023-02-01T17:51:41.751Z,3.05
2023-02-01T17:54:46.414Z,2.22
2023-02-01T17:57:49.877Z,2.33
2023-02-01T18:00:52.885Z,2.38
2023-02-01T18:03:55.562Z,1.58
2023-02-01T18:06:58.866Z,2.47
2023-02-01T18:10:02.157Z,3.13
2023-02-01T18:13:05.269Z,3.37
2023-02-01T18:16:20.057Z,3.70
2023-02-01T18:19:22.592Z,1.90
2023-02-01T18:22:25.705Z,2.72
2023-02-01T18:25:35.088Z,2.60
2023-02-01T18:28:38.012Z,1.17
2023-02-01T18:31:49.520Z,2.05
2023-02-01T18:34:52.204Z,2.58
2023-02-01T18:37:58.368Z,2.13
2023-02-01T18:41:01.436Z,2.53
2023-02-01T18:44:04.571Z,2.33
2023-02-01T18:47:07.493Z,2.72
2023-02-01T18:50:10.724Z,1.65
2023-02-01T18:53:16.333Z,2.93
2023-02-01T18:56:19.032Z,2.05
2023-02-01T18:59:21.991Z,2.30
2023-02-01T19:02:24.931Z,2.53
2023-02-01T19:05:27.847Z,5.57
2023-02-01T19:08:30.958Z,4.73
2023-02-01T19:11:33.787Z,5.50
2023-02-01T19:14:36.608Z,4.05
2023-02-01T19:17:40.873Z,3.72
2023-02-01T19:20:46.215Z,4.20
2023-02-01T19:23:48.933Z,2.20
2023-02-01T19:26:51.670Z,2.90
2023-02-01T19:29:56.305Z,7.78
2023-02-01T19:32:59.110Z,9.35
2023-02-01T19:36:06.003Z,5.75
2023-02-01T19:39:09.740Z,5.90
2023-02-01T19:42:12.695Z,5.18
2023-02-01T19:45:16.345Z,4.95
2023-02-01T19:48:18.995Z,3.30
2023-02-01T19:51:21.915Z,1.90
2023-02-01T19:54:24.902Z,1.57
2023-02-01T19:57:28.988Z,1.33
2023-02-01T20:00:31.863Z,2.75
2023-02-01T20:03:34.771Z,2.05
2023-02-01T20:06:39.682Z,1.93
2023-02-01T20:09:42.928Z,2.17
2023-02-01T20:12:48.689Z,2.78
2023-02-01T20:15:59.490Z,1.67
2023-02-01T20:19:03.800Z,2.58
2023-02-01T20:22:06.602Z,2.63
2023-02-01T20:25:11.592Z,1.80
2023-02-01T20:28:15.196Z,3.78
2023-02-01T20:31:18.302Z,5.15
2023-02-01T20:34:21.442Z,2.40
2023-02-01T20:37:24.354Z,0.73
2023-02-01T20:40:28.507Z,3.28
2023-02-01T20:43:31.601Z,2.75
2023-02-01T20:46:34.439Z,1.60
2023-02-01T20:49:38.044Z,2.97
2023-02-01T20:52:40.826Z,1.23
2023-02-01T20:55:44.082Z,3.85
2023-02-01T20:58:47.264Z,4.25
2023-02-01T21:01:52.920Z,2.17
2023-02-01T21:04:55.778Z,2.30
2023-02-01T21:07:58.480Z,2.92
2023-02-01T21:11:05.538Z,2.38
2023-02-01T21:14:08.092Z,1.38
2023-02-01T21:17:10.662Z,1.80
2023-02-01T21:20:13.650Z,1.58
2023-02-01T21:23:17.342Z,2.38
2023-02-01T21:26:22.429Z,1.92
2023-02-01T21:29:25.194Z,1.40
2023-02-01T21:32:28.921Z,2.33
2023-02-01T21:35:31.934Z,2.63
2023-02-01T21:38:34.755Z,2.45
2023-02-01T21:41:57.270Z,1.95
2023-02-01T21:45:01.452Z,2.40
2023-02-01T21:48:04.203Z,2.17
2023-02-01T21:51:09.216Z,3.05
2023-02-01T21:54:12.111Z,4.40
2023-02-01T21:57:14.691Z,1.70
2023-02-01T22:00:17.889Z,2.38
2023-02-01T22:03:20.340Z,3.70
2023-02-01T22:06:37.924Z,3.75
2023-02-01T22:09:40.717Z,2.47
2023-02-01T22:12:43.103Z,2.37
2023-02-01T22:15:45.563Z,3.10
2023-02-01T22:18:49.798Z,2.72
2023-02-01T22:21:52.369Z,2.70
2023-02-01T22:24:54.818Z,2.43
2023-02-01T22:28:31.795Z,2.67
2023-02-01T22:31:20.680Z,3.38
2023-02-01T22:34:28.141Z,2.63
2023-02-01T22:37:30.603Z,3.63
2023-02-01T22:40:33.077Z,2.30
2023-02-01T22:43:35.985Z,4.82
2023-02-01T22:46:38.542Z,3.45
2023-02-01T22:49:41.191Z,2.30
2023-02-01T22:52:44.108Z,2.07
2023-02-01T22:55:46.601Z,2.53
2023-02-01T22:58:49.158Z,4.13
2023-02-01T23:01:52.130Z,2.28
2023-02-01T23:04:54.912Z,2.43
2023-02-01T23:07:57.406Z,3.40
2023-02-01T23:11:04.788Z,2.97
2023-02-01T23:14:08.056Z,1.83
2023-02-01T23:17:10.428Z,1.80
2023-02-01T23:20:18.082Z,2.13
2023-02-01T23:23:21.193Z,2.90
2023-02-01T23:26:26.612Z,2.60
2023-02-01T23:29:29.222Z,4.03
2023-02-01T23:32:36.317Z,2.17
2023-02-01T23:35:38.819Z,3.73
2023-02-01T23:38:45.822Z,2.25
2023-02-01T23:41:48.358Z,2.35
2023-02-01T23:44:51.251Z,2.80
2023-02-01T23:47:53.676Z,5.57
2023-02-01T23:50:56.121Z,3.93
2023-02-01T23:53:59.745Z,1.60
2023-02-01T23:57:02.261Z,2.22
